KDUC/DUC METAR and TAF weather

Enter ICAO airport designator
Station Type Date Time Source
KDUC METAR 2021/03/08 02:55 UTC NOAA

KDUC 080255Z AUTO 15008KT 10SM CLR 10/M02 A3034 RMK AO2 T01031018


Station Type Date Time Source
KDUC Decoded METAR 2021/03/08 02:55 UTC NOAA

Duncan, Halliburton Field Airport, OK, United States (KDUC) 34-28-15N 097-57-36W
Mar 07, 2021 - 09:55 PM EST / 2021.03.08 0255 UTC
Wind: from the SSE (150 degrees) at 9 MPH (8 KT):0
Visibility: 10 mile(s):0
Sky conditions: clear
Temperature: 50.5 F (10.3 C)
Dew Point: 28.8 F (-1.8 C)
Relative Humidity: 42%
Pressure (altimeter): 30.34 in. Hg (1027 hPa)
ob: KDUC 080255Z AUTO 15008KT 10SM CLR 10/M02 A3034 RMK AO2 T01031018
cycle: 3

Station Type Date Time Source
KDUC TAF UTC NOAA

Error!

Example: see airport list